sensor_id;sensor_type;location;lat;lon;timestamp;P1;durP1;ratioP1;P2;durP2;ratioP2
52512;SDS011;38422;53.172;6.974;2022-07-17T00:00:41;5.10;;;1.10;;
52512;SDS011;38422;53.172;6.974;2022-07-17T00:03:09;4.57;;;0.88;;
52512;SDS011;38422;53.172;6.974;2022-07-17T00:05:39;5.50;;;1.00;;
52512;SDS011;38422;53.172;6.974;2022-07-17T00:08:05;4.35;;;1.15;;
52512;SDS011;38422;53.172;6.974;2022-07-17T00:10:32;4.03;;;1.00;;
52512;SDS011;38422;53.172;6.974;2022-07-17T00:12:59;4.40;;;1.02;;
52512;SDS011;38422;53.172;6.974;2022-07-17T00:15:24;2.75;;;1.17;;
52512;SDS011;38422;53.172;6.974;2022-07-17T00:17:50;6.10;;;0.93;;
52512;SDS011;38422;53.172;6.974;2022-07-17T00:20:16;3.03;;;0.80;;
52512;SDS011;38422;53.172;6.974;2022-07-17T00:22:41;4.95;;;0.90;;
52512;SDS011;38422;53.172;6.974;2022-07-17T00:25:08;2.38;;;0.98;;
52512;SDS011;38422;53.172;6.974;2022-07-17T00:27:35;2.88;;;1.10;;
52512;SDS011;38422;53.172;6.974;2022-07-17T00:30:02;5.50;;;1.05;;
52512;SDS011;38422;53.172;6.974;2022-07-17T00:32:29;3.30;;;1.00;;
52512;SDS011;38422;53.172;6.974;2022-07-17T00:34:54;3.20;;;0.88;;
52512;SDS011;38422;53.172;6.974;2022-07-17T00:37:21;3.15;;;0.90;;
52512;SDS011;38422;53.172;6.974;2022-07-17T00:39:46;3.17;;;0.80;;
52512;SDS011;38422;53.172;6.974;2022-07-17T00:42:13;4.25;;;0.90;;
52512;SDS011;38422;53.172;6.974;2022-07-17T00:47:13;3.67;;;1.00;;
52512;SDS011;38422;53.172;6.974;2022-07-17T00:49:40;3.53;;;1.30;;
52512;SDS011;38422;53.172;6.974;2022-07-17T00:52:07;5.70;;;1.13;;
52512;SDS011;38422;53.172;6.974;2022-07-17T00:54:40;3.78;;;1.40;;
52512;SDS011;38422;53.172;6.974;2022-07-17T00:57:07;3.58;;;1.17;;
52512;SDS011;38422;53.172;6.974;2022-07-17T00:59:35;3.90;;;1.15;;
52512;SDS011;38422;53.172;6.974;2022-07-17T01:02:05;3.10;;;1.20;;
52512;SDS011;38422;53.172;6.974;2022-07-17T01:04:33;3.20;;;1.00;;
52512;SDS011;38422;53.172;6.974;2022-07-17T01:06:59;5.28;;;1.25;;
52512;SDS011;38422;53.172;6.974;2022-07-17T01:09:29;3.47;;;1.30;;
52512;SDS011;38422;53.172;6.974;2022-07-17T01:11:56;3.38;;;1.30;;
52512;SDS011;38422;53.172;6.974;2022-07-17T01:14:22;3.30;;;1.73;;
52512;SDS011;38422;53.172;6.974;2022-07-17T01:16:50;3.85;;;1.30;;
52512;SDS011;38422;53.172;6.974;2022-07-17T01:19:17;5.00;;;1.50;;
52512;SDS011;38422;53.172;6.974;2022-07-17T01:21:44;5.15;;;1.60;;
52512;SDS011;38422;53.172;6.974;2022-07-17T01:24:12;5.43;;;1.48;;
52512;SDS011;38422;53.172;6.974;2022-07-17T01:26:41;4.03;;;1.40;;
52512;SDS011;38422;53.172;6.974;2022-07-17T01:29:08;5.70;;;1.30;;
52512;SDS011;38422;53.172;6.974;2022-07-17T01:31:35;4.38;;;1.50;;
52512;SDS011;38422;53.172;6.974;2022-07-17T01:34:01;4.80;;;1.40;;
52512;SDS011;38422;53.172;6.974;2022-07-17T01:36:29;6.43;;;1.85;;
52512;SDS011;38422;53.172;6.974;2022-07-17T01:38:55;6.35;;;1.63;;
52512;SDS011;38422;53.172;6.974;2022-07-17T01:41:21;4.97;;;1.55;;
52512;SDS011;38422;53.172;6.974;2022-07-17T01:43:47;3.10;;;1.50;;
52512;SDS011;38422;53.172;6.974;2022-07-17T01:46:13;5.50;;;1.38;;
52512;SDS011;38422;53.172;6.974;2022-07-17T01:48:39;4.38;;;1.55;;
52512;SDS011;38422;53.172;6.974;2022-07-17T01:51:05;4.03;;;1.75;;
52512;SDS011;38422;53.172;6.974;2022-07-17T01:53:30;3.42;;;1.50;;
52512;SDS011;38422;53.172;6.974;2022-07-17T01:55:56;4.88;;;1.77;;
52512;SDS011;38422;53.172;6.974;2022-07-17T01:58:22;5.68;;;1.67;;
52512;SDS011;38422;53.172;6.974;2022-07-17T02:00:47;4.78;;;1.70;;
52512;SDS011;38422;53.172;6.974;2022-07-17T02:03:13;4.03;;;1.60;;
52512;SDS011;38422;53.172;6.974;2022-07-17T02:05:39;4.50;;;1.52;;
52512;SDS011;38422;53.172;6.974;2022-07-17T02:08:04;6.38;;;1.70;;
52512;SDS011;38422;53.172;6.974;2022-07-17T02:10:30;5.57;;;1.42;;
52512;SDS011;38422;53.172;6.974;2022-07-17T02:12:56;3.83;;;1.67;;
52512;SDS011;38422;53.172;6.974;2022-07-17T02:15:23;3.38;;;1.70;;
52512;SDS011;38422;53.172;6.974;2022-07-17T02:17:49;6.43;;;1.67;;
52512;SDS011;38422;53.172;6.974;2022-07-17T02:20:15;5.45;;;1.70;;
52512;SDS011;38422;53.172;6.974;2022-07-17T02:22:41;5.57;;;1.73;;
52512;SDS011;38422;53.172;6.974;2022-07-17T02:25:07;5.50;;;1.40;;
52512;SDS011;38422;53.172;6.974;2022-07-17T02:30:03;4.40;;;1.70;;
52512;SDS011;38422;53.172;6.974;2022-07-17T02:32:31;3.28;;;1.30;;
52512;SDS011;38422;53.172;6.974;2022-07-17T02:34:56;4.22;;;1.40;;
52512;SDS011;38422;53.172;6.974;2022-07-17T02:37:22;4.40;;;1.88;;
52512;SDS011;38422;53.172;6.974;2022-07-17T02:39:48;4.47;;;1.50;;
52512;SDS011;38422;53.172;6.974;2022-07-17T02:42:23;4.53;;;1.80;;
52512;SDS011;38422;53.172;6.974;2022-07-17T02:44:50;4.18;;;1.60;;
52512;SDS011;38422;53.172;6.974;2022-07-17T02:47:20;4.35;;;1.52;;
52512;SDS011;38422;53.172;6.974;2022-07-17T02:49:51;5.32;;;1.70;;
52512;SDS011;38422;53.172;6.974;2022-07-17T02:52:18;5.47;;;1.30;;
52512;SDS011;38422;53.172;6.974;2022-07-17T02:54:43;4.63;;;1.52;;
52512;SDS011;38422;53.172;6.974;2022-07-17T02:57:10;4.95;;;1.60;;
52512;SDS011;38422;53.172;6.974;2022-07-17T02:59:36;3.65;;;1.50;;
52512;SDS011;38422;53.172;6.974;2022-07-17T03:02:02;3.38;;;1.60;;
52512;SDS011;38422;53.172;6.974;2022-07-17T03:04:28;3.33;;;1.50;;
52512;SDS011;38422;53.172;6.974;2022-07-17T03:06:54;3.97;;;1.60;;
52512;SDS011;38422;53.172;6.974;2022-07-17T03:09:19;2.35;;;1.40;;
52512;SDS011;38422;53.172;6.974;2022-07-17T03:11:45;3.45;;;1.55;;
52512;SDS011;38422;53.172;6.974;2022-07-17T03:14:11;4.75;;;1.50;;
52512;SDS011;38422;53.172;6.974;2022-07-17T03:16:37;3.45;;;1.35;;
52512;SDS011;38422;53.172;6.974;2022-07-17T03:19:02;4.65;;;1.75;;
52512;SDS011;38422;53.172;6.974;2022-07-17T03:21:28;3.90;;;1.60;;
52512;SDS011;38422;53.172;6.974;2022-07-17T03:23:53;5.97;;;1.85;;
52512;SDS011;38422;53.172;6.974;2022-07-17T03:26:19;4.47;;;1.60;;
52512;SDS011;38422;53.172;6.974;2022-07-17T03:28:45;4.13;;;1.63;;
52512;SDS011;38422;53.172;6.974;2022-07-17T03:31:10;3.22;;;1.48;;
52512;SDS011;38422;53.172;6.974;2022-07-17T03:33:36;3.88;;;1.45;;
52512;SDS011;38422;53.172;6.974;2022-07-17T03:36:02;3.10;;;1.48;;
52512;SDS011;38422;53.172;6.974;2022-07-17T03:38:27;4.82;;;1.48;;
52512;SDS011;38422;53.172;6.974;2022-07-17T03:40:53;4.72;;;1.50;;
52512;SDS011;38422;53.172;6.974;2022-07-17T03:43:19;3.00;;;1.48;;
52512;SDS011;38422;53.172;6.974;2022-07-17T03:45:44;4.03;;;1.52;;
52512;SDS011;38422;53.172;6.974;2022-07-17T03:48:10;4.07;;;1.58;;
52512;SDS011;38422;53.172;6.974;2022-07-17T03:50:36;5.07;;;1.42;;
52512;SDS011;38422;53.172;6.974;2022-07-17T03:53:01;3.92;;;1.40;;
52512;SDS011;38422;53.172;6.974;2022-07-17T03:55:27;3.35;;;1.50;;
52512;SDS011;38422;53.172;6.974;2022-07-17T03:57:53;3.60;;;1.45;;
52512;SDS011;38422;53.172;6.974;2022-07-17T04:00:18;4.88;;;1.42;;
52512;SDS011;38422;53.172;6.974;2022-07-17T04:02:44;6.35;;;1.80;;
52512;SDS011;38422;53.172;6.974;2022-07-17T04:05:10;2.88;;;1.42;;
52512;SDS011;38422;53.172;6.974;2022-07-17T04:07:37;3.03;;;1.20;;
52512;SDS011;38422;53.172;6.974;2022-07-17T04:10:04;4.18;;;1.48;;
52512;SDS011;38422;53.172;6.974;2022-07-17T04:12:31;5.72;;;1.90;;
52512;SDS011;38422;53.172;6.974;2022-07-17T04:14:57;5.03;;;1.40;;
52512;SDS011;38422;53.172;6.974;2022-07-17T04:17:23;4.65;;;1.52;;
52512;SDS011;38422;53.172;6.974;2022-07-17T04:19:49;4.32;;;1.50;;
52512;SDS011;38422;53.172;6.974;2022-07-17T04:22:15;6.03;;;1.70;;
52512;SDS011;38422;53.172;6.974;2022-07-17T04:24:41;4.72;;;1.63;;
52512;SDS011;38422;53.172;6.974;2022-07-17T04:27:08;3.70;;;1.47;;
52512;SDS011;38422;53.172;6.974;2022-07-17T04:29:34;4.03;;;1.60;;
52512;SDS011;38422;53.172;6.974;2022-07-17T04:31:59;3.40;;;1.63;;
52512;SDS011;38422;53.172;6.974;2022-07-17T04:34:25;3.42;;;1.40;;
52512;SDS011;38422;53.172;6.974;2022-07-17T04:36:51;4.30;;;1.67;;
52512;SDS011;38422;53.172;6.974;2022-07-17T04:39:17;4.13;;;1.60;;
52512;SDS011;38422;53.172;6.974;2022-07-17T04:41:43;6.00;;;1.50;;
52512;SDS011;38422;53.172;6.974;2022-07-17T04:44:09;3.00;;;1.55;;
52512;SDS011;38422;53.172;6.974;2022-07-17T04:46:35;4.78;;;1.67;;
52512;SDS011;38422;53.172;6.974;2022-07-17T04:49:00;6.18;;;1.85;;
52512;SDS011;38422;53.172;6.974;2022-07-17T04:51:26;6.50;;;1.55;;
52512;SDS011;38422;53.172;6.974;2022-07-17T04:53:51;4.20;;;1.80;;
52512;SDS011;38422;53.172;6.974;2022-07-17T04:56:17;5.82;;;1.60;;
52512;SDS011;38422;53.172;6.974;2022-07-17T04:58:43;5.47;;;1.58;;
52512;SDS011;38422;53.172;6.974;2022-07-17T05:01:08;5.28;;;1.58;;
52512;SDS011;38422;53.172;6.974;2022-07-17T05:03:34;4.53;;;1.80;;
52512;SDS011;38422;53.172;6.974;2022-07-17T05:06:00;6.53;;;1.85;;
52512;SDS011;38422;53.172;6.974;2022-07-17T05:08:25;3.75;;;1.52;;
52512;SDS011;38422;53.172;6.974;2022-07-17T05:10:51;6.25;;;1.60;;
52512;SDS011;38422;53.172;6.974;2022-07-17T05:13:16;4.00;;;1.50;;
52512;SDS011;38422;53.172;6.974;2022-07-17T05:15:42;4.93;;;1.58;;
52512;SDS011;38422;53.172;6.974;2022-07-17T05:18:08;4.45;;;1.55;;
52512;SDS011;38422;53.172;6.974;2022-07-17T05:20:34;2.85;;;1.40;;
52512;SDS011;38422;53.172;6.974;2022-07-17T05:23:00;3.38;;;1.40;;
52512;SDS011;38422;53.172;6.974;2022-07-17T05:25:28;4.30;;;1.60;;
52512;SDS011;38422;53.172;6.974;2022-07-17T05:27:54;3.30;;;1.58;;
52512;SDS011;38422;53.172;6.974;2022-07-17T05:30:20;4.40;;;1.60;;
52512;SDS011;38422;53.172;6.974;2022-07-17T05:32:46;6.65;;;1.60;;
52512;SDS011;38422;53.172;6.974;2022-07-17T05:35:12;4.25;;;1.45;;
52512;SDS011;38422;53.172;6.974;2022-07-17T05:37:38;6.30;;;1.45;;
52512;SDS011;38422;53.172;6.974;2022-07-17T05:40:04;8.07;;;1.60;;
52512;SDS011;38422;53.172;6.974;2022-07-17T05:42:30;5.40;;;1.30;;
52512;SDS011;38422;53.172;6.974;2022-07-17T05:44:56;2.28;;;1.00;;
52512;SDS011;38422;53.172;6.974;2022-07-17T05:47:21;3.15;;;1.35;;
52512;SDS011;38422;53.172;6.974;2022-07-17T05:49:47;3.35;;;1.27;;
52512;SDS011;38422;53.172;6.974;2022-07-17T05:52:12;5.05;;;1.38;;
52512;SDS011;38422;53.172;6.974;2022-07-17T05:54:38;4.70;;;1.30;;
52512;SDS011;38422;53.172;6.974;2022-07-17T05:57:03;6.18;;;1.80;;
52512;SDS011;38422;53.172;6.974;2022-07-17T05:59:29;7.03;;;1.40;;
52512;SDS011;38422;53.172;6.974;2022-07-17T06:01:55;4.35;;;1.83;;
52512;SDS011;38422;53.172;6.974;2022-07-17T06:04:20;4.47;;;1.30;;
52512;SDS011;38422;53.172;6.974;2022-07-17T06:06:46;5.63;;;1.35;;
52512;SDS011;38422;53.172;6.974;2022-07-17T06:09:12;5.57;;;1.35;;
52512;SDS011;38422;53.172;6.974;2022-07-17T06:11:37;4.63;;;1.50;;
52512;SDS011;38422;53.172;6.974;2022-07-17T06:14:03;3.88;;;1.27;;
52512;SDS011;38422;53.172;6.974;2022-07-17T06:16:29;4.55;;;1.17;;
52512;SDS011;38422;53.172;6.974;2022-07-17T06:18:54;6.75;;;1.27;;
52512;SDS011;38422;53.172;6.974;2022-07-17T06:21:20;4.55;;;1.42;;
52512;SDS011;38422;53.172;6.974;2022-07-17T06:23:46;5.93;;;1.40;;
52512;SDS011;38422;53.172;6.974;2022-07-17T06:26:11;4.10;;;1.17;;
52512;SDS011;38422;53.172;6.974;2022-07-17T06:28:37;5.57;;;1.15;;
52512;SDS011;38422;53.172;6.974;2022-07-17T06:31:03;4.90;;;1.13;;
52512;SDS011;38422;53.172;6.974;2022-07-17T06:33:28;3.30;;;1.02;;
52512;SDS011;38422;53.172;6.974;2022-07-17T06:35:54;4.00;;;1.10;;
52512;SDS011;38422;53.172;6.974;2022-07-17T06:38:20;4.68;;;1.10;;
52512;SDS011;38422;53.172;6.974;2022-07-17T06:40:46;5.90;;;1.10;;
52512;SDS011;38422;53.172;6.974;2022-07-17T06:43:12;5.70;;;1.55;;
52512;SDS011;38422;53.172;6.974;2022-07-17T06:45:38;3.85;;;1.23;;
52512;SDS011;38422;53.172;6.974;2022-07-17T06:48:03;4.28;;;1.10;;
52512;SDS011;38422;53.172;6.974;2022-07-17T06:50:29;2.78;;;0.90;;
52512;SDS011;38422;53.172;6.974;2022-07-17T06:52:55;4.93;;;0.98;;
52512;SDS011;38422;53.172;6.974;2022-07-17T06:55:23;3.13;;;0.98;;
52512;SDS011;38422;53.172;6.974;2022-07-17T06:57:48;3.92;;;1.05;;
52512;SDS011;38422;53.172;6.974;2022-07-17T07:00:15;6.67;;;1.03;;
52512;SDS011;38422;53.172;6.974;2022-07-17T07:02:43;4.55;;;0.95;;
52512;SDS011;38422;53.172;6.974;2022-07-17T07:05:09;4.33;;;1.00;;
52512;SDS011;38422;53.172;6.974;2022-07-17T07:07:35;4.10;;;1.00;;
52512;SDS011;38422;53.172;6.974;2022-07-17T07:10:01;4.95;;;1.10;;
52512;SDS011;38422;53.172;6.974;2022-07-17T07:12:27;3.65;;;0.98;;
52512;SDS011;38422;53.172;6.974;2022-07-17T07:14:53;4.25;;;1.00;;
52512;SDS011;38422;53.172;6.974;2022-07-17T07:17:19;3.65;;;0.90;;
52512;SDS011;38422;53.172;6.974;2022-07-17T07:19:45;6.93;;;1.02;;
52512;SDS011;38422;53.172;6.974;2022-07-17T07:22:11;3.45;;;1.00;;
52512;SDS011;38422;53.172;6.974;2022-07-17T07:24:37;3.10;;;0.80;;
52512;SDS011;38422;53.172;6.974;2022-07-17T07:27:02;5.22;;;0.93;;
52512;SDS011;38422;53.172;6.974;2022-07-17T07:29:28;5.03;;;0.95;;
52512;SDS011;38422;53.172;6.974;2022-07-17T07:31:54;5.18;;;0.90;;
52512;SDS011;38422;53.172;6.974;2022-07-17T07:34:19;2.53;;;0.77;;
52512;SDS011;38422;53.172;6.974;2022-07-17T07:36:45;3.40;;;0.93;;
52512;SDS011;38422;53.172;6.974;2022-07-17T07:39:10;4.75;;;1.15;;
52512;SDS011;38422;53.172;6.974;2022-07-17T07:41:36;3.78;;;1.05;;
52512;SDS011;38422;53.172;6.974;2022-07-17T07:44:02;3.75;;;0.90;;
52512;SDS011;38422;53.172;6.974;2022-07-17T07:46:28;4.20;;;1.05;;
52512;SDS011;38422;53.172;6.974;2022-07-17T07:48:53;3.42;;;0.88;;
52512;SDS011;38422;53.172;6.974;2022-07-17T07:51:19;4.28;;;0.77;;
52512;SDS011;38422;53.172;6.974;2022-07-17T07:53:44;4.30;;;0.90;;
52512;SDS011;38422;53.172;6.974;2022-07-17T07:56:10;5.38;;;1.00;;
52512;SDS011;38422;53.172;6.974;2022-07-17T07:58:37;2.70;;;0.82;;
52512;SDS011;38422;53.172;6.974;2022-07-17T08:01:03;7.05;;;0.90;;
52512;SDS011;38422;53.172;6.974;2022-07-17T08:03:28;4.05;;;0.85;;
52512;SDS011;38422;53.172;6.974;2022-07-17T08:05:54;3.95;;;0.90;;
52512;SDS011;38422;53.172;6.974;2022-07-17T08:08:20;3.92;;;0.80;;
52512;SDS011;38422;53.172;6.974;2022-07-17T08:10:45;2.97;;;1.10;;
52512;SDS011;38422;53.172;6.974;2022-07-17T08:13:11;4.05;;;0.90;;
52512;SDS011;38422;53.172;6.974;2022-07-17T08:15:36;3.10;;;0.88;;
52512;SDS011;38422;53.172;6.974;2022-07-17T08:18:02;6.28;;;1.00;;
52512;SDS011;38422;53.172;6.974;2022-07-17T08:20:28;5.43;;;0.93;;
52512;SDS011;38422;53.172;6.974;2022-07-17T08:22:54;2.60;;;0.90;;
52512;SDS011;38422;53.172;6.974;2022-07-17T08:25:19;3.00;;;0.68;;
52512;SDS011;38422;53.172;6.974;2022-07-17T08:27:45;4.93;;;0.85;;
52512;SDS011;38422;53.172;6.974;2022-07-17T08:30:12;5.25;;;0.95;;
52512;SDS011;38422;53.172;6.974;2022-07-17T08:32:39;4.90;;;1.05;;
52512;SDS011;38422;53.172;6.974;2022-07-17T08:35:05;5.77;;;0.90;;
52512;SDS011;38422;53.172;6.974;2022-07-17T08:37:41;9.27;;;1.00;;
52512;SDS011;38422;53.172;6.974;2022-07-17T08:40:15;3.33;;;0.85;;
52512;SDS011;38422;53.172;6.974;2022-07-17T08:42:45;6.07;;;0.88;;
52512;SDS011;38422;53.172;6.974;2022-07-17T08:45:11;5.45;;;0.93;;
52512;SDS011;38422;53.172;6.974;2022-07-17T08:47:38;2.67;;;0.70;;
52512;SDS011;38422;53.172;6.974;2022-07-17T08:50:04;4.15;;;0.90;;
52512;SDS011;38422;53.172;6.974;2022-07-17T08:52:30;6.43;;;0.98;;
52512;SDS011;38422;53.172;6.974;2022-07-17T08:54:56;2.95;;;0.77;;
52512;SDS011;38422;53.172;6.974;2022-07-17T08:57:22;5.63;;;0.93;;
52512;SDS011;38422;53.172;6.974;2022-07-17T08:59:48;5.57;;;0.75;;
52512;SDS011;38422;53.172;6.974;2022-07-17T09:02:13;3.47;;;1.00;;
52512;SDS011;38422;53.172;6.974;2022-07-17T09:04:39;3.58;;;0.80;;
52512;SDS011;38422;53.172;6.974;2022-07-17T09:07:05;5.57;;;0.93;;
52512;SDS011;38422;53.172;6.974;2022-07-17T09:09:31;4.50;;;0.63;;
52512;SDS011;38422;53.172;6.974;2022-07-17T09:12:00;4.13;;;0.90;;
52512;SDS011;38422;53.172;6.974;2022-07-17T09:14:36;2.83;;;0.70;;
52512;SDS011;38422;53.172;6.974;2022-07-17T09:17:04;3.92;;;0.75;;
52512;SDS011;38422;53.172;6.974;2022-07-17T09:19:31;2.58;;;0.70;;
52512;SDS011;38422;53.172;6.974;2022-07-17T09:22:21;3.38;;;0.73;;
52512;SDS011;38422;53.172;6.974;2022-07-17T09:29:53;5.18;;;0.80;;
52512;SDS011;38422;53.172;6.974;2022-07-17T09:32:27;4.38;;;0.90;;
52512;SDS011;38422;53.172;6.974;2022-07-17T09:34:55;8.45;;;2.00;;
52512;SDS011;38422;53.172;6.974;2022-07-17T09:37:23;4.80;;;1.00;;
52512;SDS011;38422;53.172;6.974;2022-07-17T09:39:50;4.07;;;0.93;;
52512;SDS011;38422;53.172;6.974;2022-07-17T09:42:22;4.22;;;0.90;;
52512;SDS011;38422;53.172;6.974;2022-07-17T09:47:31;4.22;;;0.85;;
52512;SDS011;38422;53.172;6.974;2022-07-17T09:49:58;5.80;;;0.90;;
52512;SDS011;38422;53.172;6.974;2022-07-17T09:52:30;3.92;;;0.80;;
52512;SDS011;38422;53.172;6.974;2022-07-17T09:54:58;5.18;;;0.90;;
52512;SDS011;38422;53.172;6.974;2022-07-17T09:57:31;4.65;;;1.13;;
52512;SDS011;38422;53.172;6.974;2022-07-17T09:59:59;6.90;;;1.05;;
52512;SDS011;38422;53.172;6.974;2022-07-17T10:02:31;5.35;;;1.20;;
52512;SDS011;38422;53.172;6.974;2022-07-17T10:04:58;3.60;;;2.58;;
52512;SDS011;38422;53.172;6.974;2022-07-17T10:07:24;3.08;;;0.82;;
52512;SDS011;38422;53.172;6.974;2022-07-17T10:09:49;3.08;;;0.80;;
52512;SDS011;38422;53.172;6.974;2022-07-17T10:12:15;3.40;;;0.80;;
52512;SDS011;38422;53.172;6.974;2022-07-17T10:14:42;4.00;;;0.95;;
52512;SDS011;38422;53.172;6.974;2022-07-17T10:17:09;3.30;;;0.83;;
52512;SDS011;38422;53.172;6.974;2022-07-17T10:20:11;3.83;;;0.93;;
52512;SDS011;38422;53.172;6.974;2022-07-17T10:22:43;4.93;;;1.00;;
52512;SDS011;38422;53.172;6.974;2022-07-17T10:25:14;4.18;;;1.58;;
52512;SDS011;38422;53.172;6.974;2022-07-17T10:27:51;4.25;;;0.98;;
52512;SDS011;38422;53.172;6.974;2022-07-17T10:32:52;4.82;;;0.90;;
52512;SDS011;38422;53.172;6.974;2022-07-17T10:35:19;3.97;;;1.00;;
52512;SDS011;38422;53.172;6.974;2022-07-17T10:37:45;3.45;;;0.77;;
52512;SDS011;38422;53.172;6.974;2022-07-17T10:42:58;4.45;;;0.85;;
52512;SDS011;38422;53.172;6.974;2022-07-17T10:45:29;2.05;;;0.70;;
52512;SDS011;38422;53.172;6.974;2022-07-17T10:48:14;3.40;;;0.77;;
52512;SDS011;38422;53.172;6.974;2022-07-17T10:53:14;4.78;;;0.80;;
52512;SDS011;38422;53.172;6.974;2022-07-17T10:55:47;3.88;;;0.90;;
52512;SDS011;38422;53.172;6.974;2022-07-17T10:58:25;4.18;;;0.93;;
52512;SDS011;38422;53.172;6.974;2022-07-17T11:01:01;3.03;;;0.85;;
52512;SDS011;38422;53.172;6.974;2022-07-17T11:04:02;2.25;;;0.80;;
52512;SDS011;38422;53.172;6.974;2022-07-17T11:09:01;2.58;;;0.80;;
52512;SDS011;38422;53.172;6.974;2022-07-17T11:11:40;4.18;;;1.20;;
52512;SDS011;38422;53.172;6.974;2022-07-17T11:14:07;2.92;;;0.82;;
52512;SDS011;38422;53.172;6.974;2022-07-17T11:16:34;2.63;;;0.93;;
52512;SDS011;38422;53.172;6.974;2022-07-17T11:18:59;3.53;;;0.80;;
52512;SDS011;38422;53.172;6.974;2022-07-17T11:21:25;3.27;;;0.90;;
52512;SDS011;38422;53.172;6.974;2022-07-17T11:23:52;3.37;;;0.90;;
52512;SDS011;38422;53.172;6.974;2022-07-17T11:26:20;3.10;;;0.77;;
52512;SDS011;38422;53.172;6.974;2022-07-17T11:28:47;3.03;;;0.82;;
52512;SDS011;38422;53.172;6.974;2022-07-17T11:31:24;3.60;;;0.95;;
52512;SDS011;38422;53.172;6.974;2022-07-17T11:33:55;1.98;;;0.88;;
52512;SDS011;38422;53.172;6.974;2022-07-17T11:36:24;2.05;;;1.00;;
52512;SDS011;38422;53.172;6.974;2022-07-17T11:39:07;3.88;;;1.00;;
52512;SDS011;38422;53.172;6.974;2022-07-17T11:41:39;1.65;;;0.80;;
52512;SDS011;38422;53.172;6.974;2022-07-17T11:44:10;3.65;;;1.00;;
52512;SDS011;38422;53.172;6.974;2022-07-17T11:46:37;2.25;;;0.88;;
52512;SDS011;38422;53.172;6.974;2022-07-17T11:49:05;2.72;;;1.10;;
52512;SDS011;38422;53.172;6.974;2022-07-17T11:51:35;2.53;;;1.00;;
52512;SDS011;38422;53.172;6.974;2022-07-17T11:54:11;3.83;;;1.13;;
52512;SDS011;38422;53.172;6.974;2022-07-17T11:56:39;4.30;;;1.10;;
52512;SDS011;38422;53.172;6.974;2022-07-17T11:59:07;2.78;;;1.10;;
52512;SDS011;38422;53.172;6.974;2022-07-17T12:01:43;5.60;;;1.05;;
52512;SDS011;38422;53.172;6.974;2022-07-17T12:04:13;3.88;;;1.23;;
52512;SDS011;38422;53.172;6.974;2022-07-17T12:06:39;3.30;;;1.05;;
52512;SDS011;38422;53.172;6.974;2022-07-17T12:09:06;2.50;;;1.05;;
52512;SDS011;38422;53.172;6.974;2022-07-17T12:11:32;4.70;;;0.90;;
52512;SDS011;38422;53.172;6.974;2022-07-17T12:14:05;2.80;;;1.05;;
52512;SDS011;38422;53.172;6.974;2022-07-17T12:16:34;2.67;;;0.93;;
52512;SDS011;38422;53.172;6.974;2022-07-17T12:21:32;2.95;;;0.90;;
52512;SDS011;38422;53.172;6.974;2022-07-17T12:24:03;2.67;;;0.82;;
52512;SDS011;38422;53.172;6.974;2022-07-17T12:26:31;1.60;;;0.90;;
52512;SDS011;38422;53.172;6.974;2022-07-17T12:28:57;3.95;;;1.00;;
52512;SDS011;38422;53.172;6.974;2022-07-17T12:31:24;3.55;;;1.10;;
52512;SDS011;38422;53.172;6.974;2022-07-17T12:33:51;3.13;;;1.10;;
52512;SDS011;38422;53.172;6.974;2022-07-17T12:36:18;3.25;;;1.10;;
52512;SDS011;38422;53.172;6.974;2022-07-17T12:38:45;4.95;;;1.40;;
52512;SDS011;38422;53.172;6.974;2022-07-17T12:41:11;2.77;;;1.20;;
52512;SDS011;38422;53.172;6.974;2022-07-17T12:43:36;3.40;;;1.10;;
52512;SDS011;38422;53.172;6.974;2022-07-17T12:46:02;1.60;;;1.00;;
52512;SDS011;38422;53.172;6.974;2022-07-17T12:48:28;2.40;;;0.93;;
52512;SDS011;38422;53.172;6.974;2022-07-17T12:50:53;2.60;;;1.20;;
52512;SDS011;38422;53.172;6.974;2022-07-17T12:53:19;2.23;;;1.13;;
52512;SDS011;38422;53.172;6.974;2022-07-17T12:55:45;2.50;;;1.10;;
52512;SDS011;38422;53.172;6.974;2022-07-17T12:58:10;3.70;;;1.20;;
52512;SDS011;38422;53.172;6.974;2022-07-17T13:00:36;3.43;;;1.10;;
52512;SDS011;38422;53.172;6.974;2022-07-17T13:03:02;1.60;;;1.13;;
52512;SDS011;38422;53.172;6.974;2022-07-17T13:05:29;3.20;;;1.27;;
52512;SDS011;38422;53.172;6.974;2022-07-17T13:07:55;3.70;;;1.48;;
52512;SDS011;38422;53.172;6.974;2022-07-17T13:10:21;3.20;;;1.60;;
52512;SDS011;38422;53.172;6.974;2022-07-17T13:12:46;2.38;;;1.17;;
52512;SDS011;38422;53.172;6.974;2022-07-17T13:15:12;6.68;;;1.60;;
52512;SDS011;38422;53.172;6.974;2022-07-17T13:17:38;2.23;;;1.20;;
52512;SDS011;38422;53.172;6.974;2022-07-17T13:20:03;3.67;;;1.60;;
52512;SDS011;38422;53.172;6.974;2022-07-17T13:24:56;4.85;;;1.70;;
52512;SDS011;38422;53.172;6.974;2022-07-17T13:27:21;2.70;;;1.70;;
52512;SDS011;38422;53.172;6.974;2022-07-17T13:29:47;3.17;;;1.80;;
52512;SDS011;38422;53.172;6.974;2022-07-17T13:32:12;2.90;;;1.53;;
52512;SDS011;38422;53.172;6.974;2022-07-17T13:34:38;3.90;;;1.77;;
52512;SDS011;38422;53.172;6.974;2022-07-17T13:37:04;5.30;;;1.83;;
52512;SDS011;38422;53.172;6.974;2022-07-17T13:41:56;4.53;;;1.42;;
52512;SDS011;38422;53.172;6.974;2022-07-17T13:44:21;2.40;;;1.30;;
52512;SDS011;38422;53.172;6.974;2022-07-17T13:46:47;3.28;;;1.73;;
52512;SDS011;38422;53.172;6.974;2022-07-17T13:49:13;4.90;;;1.80;;
52512;SDS011;38422;53.172;6.974;2022-07-17T13:51:38;3.17;;;1.50;;
52512;SDS011;38422;53.172;6.974;2022-07-17T13:54:04;3.25;;;1.45;;
52512;SDS011;38422;53.172;6.974;2022-07-17T13:56:31;2.15;;;1.33;;
52512;SDS011;38422;53.172;6.974;2022-07-17T13:58:57;4.60;;;1.30;;
52512;SDS011;38422;53.172;6.974;2022-07-17T14:01:23;4.22;;;1.55;;
52512;SDS011;38422;53.172;6.974;2022-07-17T14:03:49;4.05;;;1.60;;
52512;SDS011;38422;53.172;6.974;2022-07-17T14:06:15;3.05;;;1.30;;
52512;SDS011;38422;53.172;6.974;2022-07-17T14:08:41;3.03;;;1.40;;
52512;SDS011;38422;53.172;6.974;2022-07-17T14:11:08;2.80;;;1.65;;
52512;SDS011;38422;53.172;6.974;2022-07-17T14:13:36;4.13;;;1.67;;
52512;SDS011;38422;53.172;6.974;2022-07-17T14:16:02;4.28;;;1.52;;
52512;SDS011;38422;53.172;6.974;2022-07-17T14:18:28;3.55;;;1.70;;
52512;SDS011;38422;53.172;6.974;2022-07-17T14:20:53;2.65;;;1.45;;
52512;SDS011;38422;53.172;6.974;2022-07-17T14:23:19;3.50;;;1.70;;
52512;SDS011;38422;53.172;6.974;2022-07-17T14:25:45;3.85;;;1.63;;
52512;SDS011;38422;53.172;6.974;2022-07-17T14:28:10;2.63;;;1.50;;
52512;SDS011;38422;53.172;6.974;2022-07-17T14:30:36;2.47;;;1.50;;
52512;SDS011;38422;53.172;6.974;2022-07-17T14:33:02;3.45;;;1.60;;
52512;SDS011;38422;53.172;6.974;2022-07-17T14:35:28;3.75;;;1.60;;
52512;SDS011;38422;53.172;6.974;2022-07-17T14:37:53;3.72;;;1.55;;
52512;SDS011;38422;53.172;6.974;2022-07-17T14:40:19;3.15;;;1.60;;
52512;SDS011;38422;53.172;6.974;2022-07-17T14:42:45;3.50;;;1.60;;
52512;SDS011;38422;53.172;6.974;2022-07-17T14:45:10;2.85;;;1.60;;
52512;SDS011;38422;53.172;6.974;2022-07-17T14:47:37;3.42;;;1.70;;
52512;SDS011;38422;53.172;6.974;2022-07-17T14:50:04;3.90;;;1.75;;
52512;SDS011;38422;53.172;6.974;2022-07-17T14:52:31;5.18;;;2.17;;
52512;SDS011;38422;53.172;6.974;2022-07-17T14:54:57;3.53;;;1.98;;
52512;SDS011;38422;53.172;6.974;2022-07-17T14:57:23;3.28;;;1.80;;
52512;SDS011;38422;53.172;6.974;2022-07-17T14:59:48;3.78;;;1.90;;
52512;SDS011;38422;53.172;6.974;2022-07-17T15:02:14;4.30;;;2.17;;
52512;SDS011;38422;53.172;6.974;2022-07-17T15:04:39;4.20;;;2.00;;
52512;SDS011;38422;53.172;6.974;2022-07-17T15:07:05;2.97;;;1.90;;
52512;SDS011;38422;53.172;6.974;2022-07-17T15:09:31;3.05;;;2.08;;
52512;SDS011;38422;53.172;6.974;2022-07-17T15:11:57;5.65;;;4.00;;
52512;SDS011;38422;53.172;6.974;2022-07-17T15:14:22;2.50;;;1.70;;
52512;SDS011;38422;53.172;6.974;2022-07-17T15:16:48;4.15;;;1.90;;